createdAt,value
2023-03-05T00:00:09.874Z,5.00
2023-03-05T00:02:32.338Z,13.43
2023-03-05T00:04:53.874Z,5.67
2023-03-05T00:07:15.357Z,9.93
2023-03-05T00:09:36.853Z,4.13
2023-03-05T00:11:58.335Z,12.93
2023-03-05T00:14:19.831Z,6.77
2023-03-05T00:16:41.338Z,7.53
2023-03-05T00:19:03.149Z,9.33
2023-03-05T00:21:25.677Z,6.20
2023-03-05T00:23:47.308Z,7.50
2023-03-05T00:26:08.828Z,10.23
2023-03-05T00:28:30.318Z,9.27
2023-03-05T00:30:51.792Z,5.57
2023-03-05T00:33:14.206Z,5.03
2023-03-05T00:35:43.952Z,4.63
2023-03-05T00:38:05.440Z,4.37
2023-03-05T00:40:26.942Z,5.87
2023-03-05T00:42:48.410Z,4.43
2023-03-05T00:45:10.545Z,6.67
2023-03-05T00:47:32.609Z,6.27
2023-03-05T00:49:54.064Z,7.30
2023-03-05T00:52:15.486Z,3.33
2023-03-05T00:54:36.936Z,6.03
2023-03-05T00:56:58.366Z,8.07
2023-03-05T00:59:19.814Z,6.47
2023-03-05T01:01:41.343Z,6.20
2023-03-05T01:04:02.935Z,5.97
2023-03-05T01:06:24.350Z,3.73
2023-03-05T01:08:45.891Z,4.27
2023-03-05T01:11:08.387Z,3.73
2023-03-05T01:13:29.930Z,3.20
2023-03-05T01:15:51.677Z,3.73
2023-03-05T01:18:13.412Z,6.30
2023-03-05T01:20:34.917Z,5.37
2023-03-05T01:22:58.920Z,7.47
2023-03-05T01:25:20.524Z,4.83
2023-03-05T01:27:42.020Z,2.70
2023-03-05T01:30:04.513Z,3.33
2023-03-05T01:32:26.082Z,10.23
2023-03-05T01:34:47.736Z,4.37
2023-03-05T01:37:09.569Z,3.03
2023-03-05T01:39:31.101Z,4.50
2023-03-05T01:41:52.534Z,4.23
2023-03-05T01:44:28.054Z,5.47
2023-03-05T01:46:49.619Z,5.23
2023-03-05T01:49:19.705Z,6.63
2023-03-05T01:51:51.594Z,4.27
2023-03-05T01:54:15.529Z,4.60
2023-03-05T01:56:39.528Z,5.63
2023-03-05T01:59:04.779Z,4.73
2023-03-05T02:01:26.437Z,3.13
2023-03-05T02:03:48.444Z,4.40
2023-03-05T02:06:10.394Z,4.13
2023-03-05T02:08:32.159Z,11.77
2023-03-05T02:10:56.578Z,5.07
2023-03-05T02:13:27.331Z,13.97
2023-03-05T02:15:49.994Z,7.90
2023-03-05T02:18:11.475Z,6.63
2023-03-05T02:20:48.265Z,4.03
2023-03-05T02:23:09.700Z,3.93
2023-03-05T02:25:31.145Z,4.37
2023-03-05T02:27:59.948Z,7.07
2023-03-05T02:30:21.627Z,4.57
2023-03-05T02:32:43.121Z,5.73
2023-03-05T02:35:04.981Z,4.53
2023-03-05T02:37:26.402Z,4.33
2023-03-05T02:39:47.854Z,5.70
2023-03-05T02:42:09.417Z,6.07
2023-03-05T02:44:30.971Z,8.43
2023-03-05T02:46:52.742Z,8.57
2023-03-05T02:49:14.204Z,5.97
2023-03-05T02:51:35.756Z,7.23
2023-03-05T02:53:57.193Z,5.17
2023-03-05T02:56:18.797Z,6.57
2023-03-05T02:58:40.250Z,5.07
2023-03-05T03:01:01.956Z,4.20
2023-03-05T03:03:23.691Z,5.93
2023-03-05T03:05:45.150Z,8.37
2023-03-05T03:08:06.986Z,5.90
2023-03-05T03:10:28.562Z,5.03
2023-03-05T03:12:50.005Z,5.10
2023-03-05T03:15:14.725Z,4.47
2023-03-05T03:17:37.189Z,7.53
2023-03-05T03:19:58.634Z,3.13
2023-03-05T03:22:20.134Z,6.03
2023-03-05T03:24:42.956Z,10.03
2023-03-05T03:27:05.050Z,6.70
2023-03-05T03:29:26.530Z,5.70
2023-03-05T03:31:48.265Z,4.33
2023-03-05T03:34:09.715Z,6.07
2023-03-05T03:36:32.123Z,9.40
2023-03-05T03:38:53.547Z,3.83
2023-03-05T03:41:15.006Z,8.00
2023-03-05T03:43:36.896Z,5.40
2023-03-05T03:45:58.384Z,8.07
2023-03-05T03:48:19.840Z,5.73
2023-03-05T03:50:42.362Z,3.90
2023-03-05T03:53:03.848Z,8.60
2023-03-05T03:55:25.403Z,5.97
2023-03-05T03:57:46.912Z,5.07
2023-03-05T04:00:11.004Z,5.00
2023-03-05T04:02:33.111Z,6.50
2023-03-05T04:04:54.712Z,5.50
2023-03-05T04:07:16.235Z,4.17
2023-03-05T04:09:37.735Z,5.47
2023-03-05T04:11:59.169Z,5.17
2023-03-05T04:14:21.643Z,4.10
2023-03-05T04:16:43.137Z,6.83
2023-03-05T04:19:04.580Z,2.80
2023-03-05T04:21:26.107Z,3.83
2023-03-05T04:23:47.616Z,3.87
2023-03-05T04:26:09.137Z,6.33
2023-03-05T04:28:31.024Z,3.97
2023-03-05T04:30:52.664Z,2.23
2023-03-05T04:33:14.264Z,2.77
2023-03-05T04:35:36.729Z,3.43
2023-03-05T04:37:58.236Z,4.33
2023-03-05T04:40:19.917Z,1.53
2023-03-05T04:42:41.441Z,1.93
2023-03-05T04:45:03.502Z,7.63
2023-03-05T04:47:24.972Z,6.10
2023-03-05T04:49:46.494Z,3.97
2023-03-05T04:52:08.461Z,1.73
2023-03-05T04:54:29.896Z,1.67
2023-03-05T04:56:51.375Z,3.13
2023-03-05T04:59:13.366Z,4.37
2023-03-05T05:01:35.510Z,5.93
2023-03-05T05:03:56.989Z,6.20
2023-03-05T05:06:18.458Z,0.80
2023-03-05T05:08:39.920Z,3.80
2023-03-05T05:11:07.346Z,1.83
2023-03-05T05:13:30.359Z,3.93
2023-03-05T05:15:52.518Z,2.80
2023-03-05T05:18:14.027Z,3.00
2023-03-05T05:20:35.484Z,3.00
2023-03-05T05:22:56.918Z,3.53
2023-03-05T05:25:18.528Z,2.90
2023-03-05T05:27:40.667Z,4.50
2023-03-05T05:30:02.488Z,2.03
2023-03-05T05:32:24.703Z,3.73
2023-03-05T05:34:46.262Z,2.63
2023-03-05T05:37:07.691Z,1.03
2023-03-05T05:39:29.120Z,1.97
2023-03-05T05:41:52.195Z,2.37
2023-03-05T05:44:13.626Z,2.77
2023-03-05T05:46:35.856Z,2.27
2023-03-05T05:48:57.327Z,1.97
2023-03-05T05:51:21.785Z,1.63
2023-03-05T05:53:44.310Z,3.70
2023-03-05T05:56:07.205Z,1.63
2023-03-05T05:58:28.638Z,2.30
2023-03-05T06:00:50.068Z,2.07
2023-03-05T06:03:11.577Z,0.90
2023-03-05T06:05:33.339Z,3.07
2023-03-05T06:07:54.869Z,2.67
2023-03-05T06:10:16.424Z,3.37
2023-03-05T06:12:37.929Z,2.20
2023-03-05T06:14:59.403Z,2.20
2023-03-05T06:17:29.928Z,2.80
2023-03-05T06:19:55.344Z,4.30
2023-03-05T06:22:16.797Z,3.37
2023-03-05T06:24:38.854Z,7.80
2023-03-05T06:27:00.293Z,4.67
2023-03-05T06:29:21.714Z,3.47
2023-03-05T06:31:43.185Z,2.13
2023-03-05T06:34:04.752Z,1.50
2023-03-05T06:36:26.313Z,4.50
2023-03-05T06:38:49.023Z,5.13
2023-03-05T06:41:14.335Z,2.17
2023-03-05T06:43:41.562Z,2.47
2023-03-05T06:46:05.064Z,3.33
2023-03-05T06:48:26.594Z,5.13
2023-03-05T06:50:48.038Z,2.20
2023-03-05T06:53:09.520Z,4.07
2023-03-05T06:55:30.968Z,3.97
2023-03-05T06:57:52.414Z,3.60
2023-03-05T07:00:14.415Z,4.20
2023-03-05T07:02:37.705Z,1.67
2023-03-05T07:04:59.218Z,6.73
2023-03-05T07:07:20.816Z,4.87
2023-03-05T07:09:44.924Z,3.53
2023-03-05T07:12:07.585Z,2.83
2023-03-05T07:14:29.019Z,4.27
2023-03-05T07:16:50.612Z,3.37
2023-03-05T07:19:12.070Z,3.83
2023-03-05T07:21:36.890Z,1.87
2023-03-05T07:24:01.519Z,2.40
2023-03-05T07:26:23.474Z,3.67
2023-03-05T07:28:44.954Z,2.17
2023-03-05T07:31:09.233Z,2.13
2023-03-05T07:33:32.214Z,1.90
2023-03-05T07:35:54.182Z,5.83
2023-03-05T07:38:15.680Z,2.10
2023-03-05T07:40:37.100Z,6.63
2023-03-05T07:42:58.571Z,2.30
2023-03-05T07:45:20.146Z,1.73
2023-03-05T07:47:41.690Z,3.20
2023-03-05T07:50:04.037Z,2.07
2023-03-05T07:52:25.519Z,1.73
2023-03-05T07:54:46.988Z,1.90
2023-03-05T07:57:09.083Z,3.17
2023-03-05T07:59:30.625Z,3.30
2023-03-05T08:01:52.133Z,2.37
2023-03-05T08:04:13.735Z,3.53
2023-03-05T08:06:35.212Z,6.80
2023-03-05T08:08:58.244Z,3.63
2023-03-05T08:11:19.754Z,2.90
2023-03-05T08:13:42.503Z,1.90
2023-03-05T08:16:09.102Z,2.50
2023-03-05T08:18:30.599Z,3.50
2023-03-05T08:20:52.077Z,1.83
2023-03-05T08:23:13.554Z,3.83
2023-03-05T08:25:35.265Z,6.70
2023-03-05T08:27:57.031Z,2.03
2023-03-05T08:30:22.401Z,2.07
2023-03-05T08:32:44.028Z,4.13
2023-03-05T08:35:06.761Z,5.33
2023-03-05T08:37:28.691Z,3.87
2023-03-05T08:39:50.199Z,2.57
2023-03-05T08:42:11.681Z,3.43
2023-03-05T08:44:33.178Z,2.93
2023-03-05T08:46:54.716Z,3.03
2023-03-05T08:49:16.347Z,16.17
2023-03-05T08:51:37.813Z,6.57
2023-03-05T08:54:00.158Z,14.47
2023-03-05T08:56:21.866Z,3.23
2023-03-05T08:58:44.620Z,3.27
2023-03-05T09:01:06.944Z,20.23
2023-03-05T09:03:28.431Z,2.43
2023-03-05T09:05:51.351Z,3.87
2023-03-05T09:08:12.906Z,3.07
2023-03-05T09:10:34.350Z,3.03
2023-03-05T09:12:55.848Z,6.27
2023-03-05T09:15:17.358Z,4.03
2023-03-05T09:17:41.968Z,2.67
2023-03-05T09:20:04.841Z,3.43
2023-03-05T09:22:26.278Z,4.00
2023-03-05T09:24:47.764Z,5.47
2023-03-05T09:27:09.247Z,3.13
2023-03-05T09:29:31.366Z,2.53
2023-03-05T09:31:53.118Z,3.60
2023-03-05T09:34:14.600Z,2.73
2023-03-05T09:36:36.052Z,2.73
2023-03-05T09:38:58.309Z,2.17
2023-03-05T09:41:43.079Z,3.50
2023-03-05T09:44:30.260Z,4.33
2023-03-05T09:47:27.325Z,2.20
2023-03-05T09:50:04.115Z,4.00
2023-03-05T09:52:45.369Z,4.50
2023-03-05T09:55:14.785Z,5.73
2023-03-05T09:57:45.732Z,2.27
2023-03-05T10:00:19.823Z,3.83
2023-03-05T10:02:50.273Z,4.53
2023-03-05T10:05:29.563Z,3.07
2023-03-05T10:08:01.555Z,3.23
2023-03-05T10:10:34.925Z,3.40
2023-03-05T10:12:58.821Z,2.27
2023-03-05T10:15:32.095Z,4.13
2023-03-05T10:17:58.749Z,2.60
2023-03-05T10:20:41.130Z,1.50
2023-03-05T10:23:08.764Z,3.70
2023-03-05T10:25:40.175Z,2.27
2023-03-05T10:28:17.818Z,4.70
2023-03-05T10:31:03.311Z,3.70
2023-03-05T10:33:47.788Z,3.03
2023-03-05T10:36:29.678Z,5.23
2023-03-05T10:39:30.326Z,3.27
2023-03-05T10:42:05.870Z,4.43
2023-03-05T10:44:39.614Z,3.00
2023-03-05T10:47:02.971Z,3.13
2023-03-05T10:49:32.519Z,4.43
2023-03-05T10:52:09.762Z,6.37
2023-03-05T10:54:33.935Z,3.10
2023-03-05T10:57:16.230Z,3.83
2023-03-05T10:59:37.725Z,5.37
2023-03-05T11:02:08.478Z,4.80
2023-03-05T11:04:35.958Z,3.60
2023-03-05T11:06:57.476Z,4.73
2023-03-05T11:09:24.499Z,4.80
2023-03-05T11:12:09.982Z,3.20
2023-03-05T11:14:33.352Z,4.77
2023-03-05T11:16:54.813Z,3.97
2023-03-05T11:19:29.970Z,2.90
2023-03-05T11:22:10.986Z,3.40
2023-03-05T11:24:34.105Z,1.97
2023-03-05T11:26:57.872Z,3.80
2023-03-05T11:29:27.941Z,2.80
2023-03-05T11:31:50.449Z,5.40
2023-03-05T11:34:17.864Z,3.30
2023-03-05T11:36:42.402Z,3.33
2023-03-05T11:39:07.557Z,3.90
2023-03-05T11:41:41.181Z,4.27
2023-03-05T11:44:11.221Z,4.43
2023-03-05T11:46:41.409Z,3.60
2023-03-05T11:49:02.939Z,3.13
2023-03-05T11:51:37.169Z,3.17
2023-03-05T11:54:07.943Z,4.20
2023-03-05T11:56:36.900Z,1.87
2023-03-05T11:59:05.304Z,5.03
2023-03-05T12:01:30.721Z,5.83
2023-03-05T12:03:53.710Z,4.40
2023-03-05T12:06:30.527Z,6.60
2023-03-05T12:08:55.830Z,9.80
2023-03-05T12:11:23.936Z,4.33
2023-03-05T12:13:51.522Z,4.13
2023-03-05T12:16:30.836Z,3.83
2023-03-05T12:19:01.287Z,3.53
2023-03-05T12:21:37.096Z,4.20
2023-03-05T12:24:03.534Z,2.90
2023-03-05T12:26:52.774Z,6.23
2023-03-05T12:29:41.147Z,3.47
2023-03-05T12:32:04.808Z,2.17
2023-03-05T12:34:48.191Z,3.37
2023-03-05T12:37:21.780Z,3.50
2023-03-05T12:39:52.560Z,5.30
2023-03-05T12:42:34.245Z,4.30
2023-03-05T12:45:16.973Z,14.07
2023-03-05T12:47:45.871Z,5.10
2023-03-05T12:50:28.778Z,3.07
2023-03-05T12:52:50.270Z,3.47
2023-03-05T12:55:33.722Z,2.37
2023-03-05T12:58:25.947Z,5.77
2023-03-05T13:00:59.178Z,2.93
2023-03-05T13:03:30.825Z,4.77
2023-03-05T13:05:55.450Z,3.80
2023-03-05T13:08:22.709Z,3.70
2023-03-05T13:10:52.213Z,5.37
2023-03-05T13:13:16.048Z,3.77
2023-03-05T13:15:37.628Z,6.50
2023-03-05T13:18:07.433Z,4.40
2023-03-05T13:20:42.781Z,6.97
2023-03-05T13:23:18.373Z,5.27
2023-03-05T13:25:39.889Z,3.77
2023-03-05T13:28:09.840Z,6.07
2023-03-05T13:30:33.066Z,4.50
2023-03-05T13:33:03.025Z,5.13
2023-03-05T13:35:24.535Z,5.43
2023-03-05T13:37:46.667Z,5.07
2023-03-05T13:40:35.102Z,5.83
2023-03-05T13:43:09.678Z,6.57
2023-03-05T13:45:32.327Z,5.40
2023-03-05T13:47:59.644Z,7.57
2023-03-05T13:50:31.049Z,5.97
2023-03-05T13:52:53.264Z,4.80
2023-03-05T13:55:17.817Z,14.73
2023-03-05T13:57:57.344Z,6.17
2023-03-05T14:00:36.726Z,7.87
2023-03-05T14:03:11.194Z,5.47
2023-03-05T14:05:32.961Z,8.73
2023-03-05T14:07:56.701Z,6.40
2023-03-05T14:10:34.915Z,7.83
2023-03-05T14:12:57.796Z,5.50
2023-03-05T14:15:34.256Z,6.83
2023-03-05T14:18:13.701Z,5.23
2023-03-05T14:20:35.261Z,6.60
2023-03-05T14:22:59.392Z,7.87
2023-03-05T14:25:39.738Z,7.03
2023-03-05T14:28:06.415Z,7.40
2023-03-05T14:30:30.914Z,7.23
2023-03-05T14:32:55.929Z,7.83
2023-03-05T14:35:20.759Z,8.00
2023-03-05T14:37:45.017Z,8.03
2023-03-05T14:40:19.704Z,8.90
2023-03-05T14:43:02.670Z,7.93
2023-03-05T14:45:28.156Z,8.10
2023-03-05T14:47:51.060Z,7.07
2023-03-05T14:50:24.541Z,7.83
2023-03-05T14:52:48.531Z,5.50
2023-03-05T14:55:15.942Z,6.77
2023-03-05T14:57:37.469Z,6.37
2023-03-05T14:59:59.085Z,10.33
2023-03-05T15:02:24.168Z,7.53
2023-03-05T15:04:46.545Z,7.90
2023-03-05T15:07:15.692Z,7.30
2023-03-05T15:09:37.800Z,8.43
2023-03-05T15:11:59.250Z,8.30
2023-03-05T15:14:20.697Z,6.57
2023-03-05T15:16:44.116Z,8.53
2023-03-05T15:19:05.585Z,6.27
2023-03-05T15:21:27.037Z,7.53
2023-03-05T15:23:48.507Z,6.00
2023-03-05T15:26:13.326Z,6.87
2023-03-05T15:28:36.893Z,6.37
2023-03-05T15:31:00.263Z,7.97
2023-03-05T15:33:23.114Z,6.37
2023-03-05T15:35:44.986Z,7.27
2023-03-05T15:38:06.770Z,7.20
2023-03-05T15:40:28.713Z,6.50
2023-03-05T15:42:50.425Z,7.60
2023-03-05T15:45:11.913Z,6.90
2023-03-05T15:47:33.679Z,8.00
2023-03-05T15:49:55.120Z,8.30
2023-03-05T15:52:16.552Z,6.70
2023-03-05T15:54:38.020Z,7.43
2023-03-05T15:56:59.457Z,7.50
2023-03-05T15:59:21.122Z,10.33
2023-03-05T16:01:48.128Z,8.33
2023-03-05T16:04:09.707Z,7.13
2023-03-05T16:06:33.827Z,7.00
2023-03-05T16:09:02.645Z,6.33
2023-03-05T16:11:24.335Z,7.33
2023-03-05T16:13:45.815Z,7.00
2023-03-05T16:16:09.257Z,7.60
2023-03-05T16:18:32.535Z,7.57
2023-03-05T16:20:55.037Z,5.80
2023-03-05T16:23:16.584Z,6.80
2023-03-05T16:25:38.097Z,6.53
2023-03-05T16:27:59.530Z,5.73
2023-03-05T16:30:21.300Z,6.43
2023-03-05T16:32:43.284Z,4.20
2023-03-05T16:35:05.431Z,8.90
2023-03-05T16:37:26.926Z,7.97
2023-03-05T16:39:48.999Z,5.77
2023-03-05T16:42:10.667Z,7.00
2023-03-05T16:44:32.145Z,5.30
2023-03-05T16:46:53.972Z,4.37
2023-03-05T16:49:15.888Z,6.67
2023-03-05T16:51:37.385Z,4.60
2023-03-05T16:53:58.844Z,5.10
2023-03-05T16:56:20.850Z,4.80
2023-03-05T16:58:42.307Z,5.60
2023-03-05T17:01:08.208Z,5.23
2023-03-05T17:03:29.881Z,5.13
2023-03-05T17:05:51.348Z,5.77
2023-03-05T17:08:12.898Z,7.73
2023-03-05T17:10:34.384Z,8.47
2023-03-05T17:12:56.622Z,5.27
2023-03-05T17:15:18.196Z,7.87
2023-03-05T17:17:40.643Z,8.57
2023-03-05T17:20:02.211Z,5.77
2023-03-05T17:22:24.197Z,8.00
2023-03-05T17:24:47.264Z,12.20
2023-03-05T17:27:10.263Z,7.97
2023-03-05T17:29:31.763Z,9.70
2023-03-05T17:31:53.447Z,7.37
2023-03-05T17:34:15.705Z,5.83
2023-03-05T17:36:39.223Z,6.60
2023-03-05T17:39:00.741Z,5.30
2023-03-05T17:41:22.918Z,6.00
2023-03-05T17:43:44.965Z,8.50
2023-03-05T17:46:07.118Z,6.87
2023-03-05T17:48:28.695Z,7.40
2023-03-05T17:50:50.190Z,11.30
2023-03-05T17:53:12.076Z,11.60
2023-03-05T17:55:33.817Z,11.30
2023-03-05T17:57:56.619Z,16.87
2023-03-05T18:00:21.953Z,15.37
2023-03-05T18:02:43.556Z,13.47
2023-03-05T18:05:05.972Z,9.13
2023-03-05T18:07:27.405Z,6.90
2023-03-05T18:09:48.858Z,7.17
2023-03-05T18:12:10.269Z,7.60
2023-03-05T18:14:31.765Z,8.40
2023-03-05T18:16:54.710Z,7.40
2023-03-05T18:19:16.603Z,8.27
2023-03-05T18:21:40.099Z,8.47
2023-03-05T18:24:01.649Z,7.87
2023-03-05T18:26:23.063Z,7.07
2023-03-05T18:28:44.569Z,7.33
2023-03-05T18:31:06.091Z,12.13
2023-03-05T18:33:27.576Z,13.03
2023-03-05T18:35:52.166Z,11.67
2023-03-05T18:38:14.003Z,14.13
2023-03-05T18:40:38.980Z,14.03
2023-03-05T18:43:00.946Z,14.43
2023-03-05T18:45:22.903Z,9.77
2023-03-05T18:47:44.632Z,10.00
2023-03-05T18:50:07.003Z,15.23
2023-03-05T18:52:28.443Z,11.73
2023-03-05T18:54:49.914Z,13.53
2023-03-05T18:57:11.346Z,13.33
2023-03-05T18:59:32.773Z,8.23
2023-03-05T19:01:54.190Z,7.83
2023-03-05T19:04:15.657Z,9.53
2023-03-05T19:06:38.414Z,11.10
2023-03-05T19:09:00.859Z,6.13
2023-03-05T19:11:22.391Z,7.27
2023-03-05T19:13:49.050Z,8.70
2023-03-05T19:16:17.707Z,7.37
2023-03-05T19:18:43.084Z,6.43
2023-03-05T19:21:04.679Z,7.27
2023-03-05T19:23:26.219Z,9.03
2023-03-05T19:25:47.825Z,7.57
2023-03-05T19:28:09.587Z,11.50
2023-03-05T19:30:31.130Z,8.23
2023-03-05T19:32:52.546Z,20.40
2023-03-05T19:35:16.427Z,33.33
2023-03-05T19:37:37.859Z,12.43
2023-03-05T19:39:59.356Z,10.33
2023-03-05T19:42:20.800Z,12.87
2023-03-05T19:44:42.309Z,9.33
2023-03-05T19:47:03.859Z,10.03
2023-03-05T19:49:25.541Z,7.43
2023-03-05T19:51:47.375Z,11.20
2023-03-05T19:54:09.619Z,9.57
2023-03-05T19:56:31.103Z,11.17
2023-03-05T19:58:52.550Z,9.73
2023-03-05T20:01:15.914Z,11.10
2023-03-05T20:03:38.397Z,9.73
2023-03-05T20:05:59.847Z,10.83
2023-03-05T20:08:21.268Z,12.77
2023-03-05T20:10:42.772Z,9.27
2023-03-05T20:13:05.198Z,10.10
2023-03-05T20:15:29.285Z,11.73
2023-03-05T20:17:52.647Z,11.73
2023-03-05T20:20:17.949Z,13.13
2023-03-05T20:22:42.111Z,13.07
2023-03-05T20:25:03.887Z,13.13
2023-03-05T20:27:25.339Z,11.40
2023-03-05T20:29:46.809Z,13.10
2023-03-05T20:32:08.297Z,11.37
2023-03-05T20:34:31.200Z,10.70
2023-03-05T20:36:52.625Z,13.07
2023-03-05T20:39:14.154Z,14.37
2023-03-05T20:41:37.803Z,12.30
2023-03-05T20:43:59.260Z,13.33
2023-03-05T20:46:23.814Z,12.27
2023-03-05T20:48:48.130Z,12.73
2023-03-05T20:51:16.038Z,12.47
2023-03-05T20:53:37.482Z,12.37
2023-03-05T20:55:58.943Z,12.47
2023-03-05T20:58:20.431Z,12.63
2023-03-05T21:00:42.304Z,12.37
2023-03-05T21:03:03.871Z,13.87
2023-03-05T21:05:28.661Z,15.13
2023-03-05T21:07:50.601Z,12.67
2023-03-05T21:10:14.226Z,14.33
2023-03-05T21:12:35.681Z,12.03
2023-03-05T21:14:57.116Z,14.70
2023-03-05T21:17:18.592Z,12.63
2023-03-05T21:19:40.155Z,12.60
2023-03-05T21:22:01.610Z,12.90
2023-03-05T21:24:25.402Z,13.47
2023-03-05T21:26:46.817Z,15.00
2023-03-05T21:29:08.240Z,15.90
2023-03-05T21:31:29.747Z,14.10
2023-03-05T21:33:51.252Z,15.17
2023-03-05T21:36:13.195Z,13.93
2023-03-05T21:38:34.786Z,13.67
2023-03-05T21:40:57.839Z,14.87
2023-03-05T21:43:22.623Z,13.83
2023-03-05T21:45:47.264Z,13.67
2023-03-05T21:48:09.538Z,14.50
2023-03-05T21:50:33.406Z,12.00
2023-03-05T21:52:55.029Z,13.13
2023-03-05T21:55:19.480Z,13.83
2023-03-05T21:57:41.173Z,12.33
2023-03-05T22:00:05.730Z,13.63
2023-03-05T22:02:27.291Z,16.83
2023-03-05T22:04:49.139Z,11.60
2023-03-05T22:07:10.669Z,13.13
2023-03-05T22:09:32.118Z,13.17
2023-03-05T22:11:53.541Z,14.50
2023-03-05T22:14:16.856Z,17.63
2023-03-05T22:16:39.131Z,17.07
2023-03-05T22:19:00.609Z,17.20
2023-03-05T22:21:26.447Z,13.93
2023-03-05T22:23:48.129Z,13.47
2023-03-05T22:26:09.634Z,13.87
2023-03-05T22:28:32.506Z,15.67
2023-03-05T22:30:54.800Z,16.97
2023-03-05T22:33:16.262Z,15.47
2023-03-05T22:35:41.641Z,18.97
2023-03-05T22:38:03.153Z,12.70
2023-03-05T22:40:24.732Z,17.27
2023-03-05T22:42:46.533Z,17.63
2023-03-05T22:45:09.298Z,14.00
2023-03-05T22:47:31.388Z,16.83
2023-03-05T22:49:53.807Z,18.37
2023-03-05T22:52:15.264Z,15.00
2023-03-05T22:54:36.687Z,16.10
2023-03-05T22:56:58.144Z,15.17
2023-03-05T22:59:19.577Z,14.53
2023-03-05T23:01:41.165Z,15.37
2023-03-05T23:04:08.738Z,15.60
2023-03-05T23:06:30.250Z,16.53
2023-03-05T23:08:51.668Z,18.97
2023-03-05T23:11:13.302Z,19.67
2023-03-05T23:13:34.852Z,15.73
2023-03-05T23:15:56.311Z,14.93
2023-03-05T23:18:17.875Z,15.10
2023-03-05T23:20:39.312Z,14.23
2023-03-05T23:23:01.546Z,14.87
2023-03-05T23:25:25.473Z,17.00
2023-03-05T23:27:47.058Z,17.67
2023-03-05T23:30:24.595Z,17.13
2023-03-05T23:32:51.770Z,16.10
2023-03-05T23:35:15.316Z,13.97
2023-03-05T23:37:36.762Z,16.40
2023-03-05T23:39:59.359Z,15.97
2023-03-05T23:42:20.884Z,18.27
2023-03-05T23:44:42.302Z,17.27
2023-03-05T23:47:03.844Z,16.13
2023-03-05T23:49:25.314Z,18.35
2023-03-05T23:51:46.776Z,24.10
2023-03-05T23:54:08.198Z,15.47
2023-03-05T23:56:31.440Z,17.47
2023-03-05T23:58:56.083Z,17.80
